sensor_id;sensor_type;location;lat;lon;timestamp;P1;durP1;ratioP1;P2;durP2;ratioP2
58978;SDS011;44763;50.464;30.612;2023-09-30T00:00:46;23.00;;;17.80;;
58978;SDS011;44763;50.464;30.612;2023-09-30T00:02:49;18.20;;;16.10;;
58978;SDS011;44763;50.464;30.612;2023-09-30T00:04:51;20.80;;;17.30;;
58978;SDS011;44763;50.464;30.612;2023-09-30T00:06:54;20.00;;;16.50;;
58978;SDS011;44763;50.464;30.612;2023-09-30T00:08:55;20.10;;;16.30;;
58978;SDS011;44763;50.464;30.612;2023-09-30T00:10:57;19.00;;;16.20;;
58978;SDS011;44763;50.464;30.612;2023-09-30T00:12:59;20.20;;;18.10;;
58978;SDS011;44763;50.464;30.612;2023-09-30T00:15:01;18.90;;;16.70;;
58978;SDS011;44763;50.464;30.612;2023-09-30T00:17:03;20.30;;;16.40;;
58978;SDS011;44763;50.464;30.612;2023-09-30T00:19:05;18.50;;;15.70;;
58978;SDS011;44763;50.464;30.612;2023-09-30T00:21:07;19.10;;;16.20;;
58978;SDS011;44763;50.464;30.612;2023-09-30T00:23:09;24.60;;;18.00;;
58978;SDS011;44763;50.464;30.612;2023-09-30T00:25:11;19.30;;;16.20;;
58978;SDS011;44763;50.464;30.612;2023-09-30T00:27:13;22.40;;;17.10;;
58978;SDS011;44763;50.464;30.612;2023-09-30T00:29:15;24.20;;;18.50;;
58978;SDS011;44763;50.464;30.612;2023-09-30T00:31:16;17.40;;;15.60;;
58978;SDS011;44763;50.464;30.612;2023-09-30T00:33:20;19.10;;;16.80;;
58978;SDS011;44763;50.464;30.612;2023-09-30T00:35:21;20.10;;;16.00;;
58978;SDS011;44763;50.464;30.612;2023-09-30T00:37:24;18.80;;;16.80;;
58978;SDS011;44763;50.464;30.612;2023-09-30T00:39:26;20.90;;;17.10;;
58978;SDS011;44763;50.464;30.612;2023-09-30T00:41:31;18.60;;;16.00;;
58978;SDS011;44763;50.464;30.612;2023-09-30T00:43:33;21.00;;;16.80;;
58978;SDS011;44763;50.464;30.612;2023-09-30T00:45:35;24.90;;;17.00;;
58978;SDS011;44763;50.464;30.612;2023-09-30T00:47:41;17.90;;;15.70;;
58978;SDS011;44763;50.464;30.612;2023-09-30T00:49:45;24.50;;;17.20;;
58978;SDS011;44763;50.464;30.612;2023-09-30T00:51:47;17.90;;;15.90;;
58978;SDS011;44763;50.464;30.612;2023-09-30T00:53:53;21.40;;;17.90;;
58978;SDS011;44763;50.464;30.612;2023-09-30T00:55:58;23.00;;;18.30;;
58978;SDS011;44763;50.464;30.612;2023-09-30T00:58:01;21.80;;;17.00;;
58978;SDS011;44763;50.464;30.612;2023-09-30T01:00:03;24.40;;;18.10;;
58978;SDS011;44763;50.464;30.612;2023-09-30T01:02:05;20.60;;;18.20;;
58978;SDS011;44763;50.464;30.612;2023-09-30T01:04:09;24.20;;;19.60;;
58978;SDS011;44763;50.464;30.612;2023-09-30T01:06:13;23.60;;;18.70;;
58978;SDS011;44763;50.464;30.612;2023-09-30T01:08:18;27.90;;;20.20;;
58978;SDS011;44763;50.464;30.612;2023-09-30T01:10:21;25.80;;;20.40;;
58978;SDS011;44763;50.464;30.612;2023-09-30T01:12:23;25.40;;;20.60;;
58978;SDS011;44763;50.464;30.612;2023-09-30T01:14:29;21.10;;;18.60;;
58978;SDS011;44763;50.464;30.612;2023-09-30T01:16:32;20.60;;;18.50;;
58978;SDS011;44763;50.464;30.612;2023-09-30T01:18:36;25.00;;;18.60;;
58978;SDS011;44763;50.464;30.612;2023-09-30T01:20:38;20.40;;;17.50;;
58978;SDS011;44763;50.464;30.612;2023-09-30T01:22:41;20.50;;;17.00;;
58978;SDS011;44763;50.464;30.612;2023-09-30T01:24:46;24.20;;;17.50;;
58978;SDS011;44763;50.464;30.612;2023-09-30T01:26:49;21.90;;;18.80;;
58978;SDS011;44763;50.464;30.612;2023-09-30T01:28:51;21.40;;;18.50;;
58978;SDS011;44763;50.464;30.612;2023-09-30T01:30:52;25.10;;;18.50;;
58978;SDS011;44763;50.464;30.612;2023-09-30T01:32:54;21.60;;;18.50;;
58978;SDS011;44763;50.464;30.612;2023-09-30T01:34:57;21.60;;;18.20;;
58978;SDS011;44763;50.464;30.612;2023-09-30T01:36:58;20.60;;;18.20;;
58978;SDS011;44763;50.464;30.612;2023-09-30T01:39:01;23.80;;;19.80;;
58978;SDS011;44763;50.464;30.612;2023-09-30T01:41:04;23.00;;;18.70;;
58978;SDS011;44763;50.464;30.612;2023-09-30T01:43:07;22.30;;;17.70;;
58978;SDS011;44763;50.464;30.612;2023-09-30T01:45:09;22.70;;;18.80;;
58978;SDS011;44763;50.464;30.612;2023-09-30T01:47:12;20.80;;;18.40;;
58978;SDS011;44763;50.464;30.612;2023-09-30T01:49:14;23.60;;;19.30;;
58978;SDS011;44763;50.464;30.612;2023-09-30T01:51:15;22.10;;;17.60;;
58978;SDS011;44763;50.464;30.612;2023-09-30T01:53:17;20.00;;;17.40;;
58978;SDS011;44763;50.464;30.612;2023-09-30T01:55:19;21.10;;;18.90;;
58978;SDS011;44763;50.464;30.612;2023-09-30T01:57:22;22.90;;;18.20;;
58978;SDS011;44763;50.464;30.612;2023-09-30T01:59:24;26.10;;;18.70;;
58978;SDS011;44763;50.464;30.612;2023-09-30T02:01:26;23.10;;;19.10;;
58978;SDS011;44763;50.464;30.612;2023-09-30T02:03:28;22.80;;;18.30;;
58978;SDS011;44763;50.464;30.612;2023-09-30T02:05:31;22.20;;;18.50;;
58978;SDS011;44763;50.464;30.612;2023-09-30T02:07:32;27.80;;;19.40;;
58978;SDS011;44763;50.464;30.612;2023-09-30T02:09:34;20.60;;;18.20;;
58978;SDS011;44763;50.464;30.612;2023-09-30T02:11:36;20.30;;;18.20;;
58978;SDS011;44763;50.464;30.612;2023-09-30T02:13:40;21.60;;;18.80;;
58978;SDS011;44763;50.464;30.612;2023-09-30T02:15:42;20.40;;;18.20;;
58978;SDS011;44763;50.464;30.612;2023-09-30T02:17:47;25.20;;;19.10;;
58978;SDS011;44763;50.464;30.612;2023-09-30T02:19:50;22.20;;;17.70;;
58978;SDS011;44763;50.464;30.612;2023-09-30T02:21:52;20.20;;;17.90;;
58978;SDS011;44763;50.464;30.612;2023-09-30T02:23:54;22.10;;;18.70;;
58978;SDS011;44763;50.464;30.612;2023-09-30T02:25:57;20.20;;;18.00;;
58978;SDS011;44763;50.464;30.612;2023-09-30T02:27:59;24.00;;;18.20;;
58978;SDS011;44763;50.464;30.612;2023-09-30T02:30:02;25.60;;;18.90;;
58978;SDS011;44763;50.464;30.612;2023-09-30T02:32:03;19.80;;;17.20;;
58978;SDS011;44763;50.464;30.612;2023-09-30T02:34:05;23.40;;;19.40;;
58978;SDS011;44763;50.464;30.612;2023-09-30T02:36:10;20.80;;;17.40;;
58978;SDS011;44763;50.464;30.612;2023-09-30T02:38:14;21.10;;;18.00;;
58978;SDS011;44763;50.464;30.612;2023-09-30T02:40:17;22.70;;;17.00;;
58978;SDS011;44763;50.464;30.612;2023-09-30T02:42:21;21.50;;;18.60;;
58978;SDS011;44763;50.464;30.612;2023-09-30T02:44:25;23.00;;;18.40;;
58978;SDS011;44763;50.464;30.612;2023-09-30T02:46:27;26.30;;;20.00;;
58978;SDS011;44763;50.464;30.612;2023-09-30T02:48:29;23.50;;;18.50;;
58978;SDS011;44763;50.464;30.612;2023-09-30T02:50:31;26.30;;;19.00;;
58978;SDS011;44763;50.464;30.612;2023-09-30T02:52:36;20.70;;;18.50;;
58978;SDS011;44763;50.464;30.612;2023-09-30T02:54:39;21.20;;;18.70;;
58978;SDS011;44763;50.464;30.612;2023-09-30T02:56:42;24.60;;;18.90;;
58978;SDS011;44763;50.464;30.612;2023-09-30T02:58:45;27.70;;;19.60;;
58978;SDS011;44763;50.464;30.612;2023-09-30T03:00:48;21.80;;;19.20;;
58978;SDS011;44763;50.464;30.612;2023-09-30T03:02:51;23.00;;;20.60;;
58978;SDS011;44763;50.464;30.612;2023-09-30T03:04:54;29.30;;;20.40;;
58978;SDS011;44763;50.464;30.612;2023-09-30T03:07:00;22.50;;;19.50;;
58978;SDS011;44763;50.464;30.612;2023-09-30T03:09:02;24.70;;;19.10;;
58978;SDS011;44763;50.464;30.612;2023-09-30T03:11:05;20.00;;;17.90;;
58978;SDS011;44763;50.464;30.612;2023-09-30T03:13:09;23.20;;;19.00;;
58978;SDS011;44763;50.464;30.612;2023-09-30T03:15:11;26.40;;;19.20;;
58978;SDS011;44763;50.464;30.612;2023-09-30T03:17:13;22.30;;;19.80;;
58978;SDS011;44763;50.464;30.612;2023-09-30T03:19:15;22.00;;;17.40;;
58978;SDS011;44763;50.464;30.612;2023-09-30T03:21:18;24.20;;;18.60;;
58978;SDS011;44763;50.464;30.612;2023-09-30T03:23:20;20.50;;;18.30;;
58978;SDS011;44763;50.464;30.612;2023-09-30T03:25:22;27.70;;;19.80;;
58978;SDS011;44763;50.464;30.612;2023-09-30T03:27:24;28.80;;;19.20;;
58978;SDS011;44763;50.464;30.612;2023-09-30T03:29:26;28.10;;;18.30;;
58978;SDS011;44763;50.464;30.612;2023-09-30T03:31:30;23.10;;;18.20;;
58978;SDS011;44763;50.464;30.612;2023-09-30T03:33:32;23.20;;;19.00;;
58978;SDS011;44763;50.464;30.612;2023-09-30T03:35:36;22.80;;;18.90;;
58978;SDS011;44763;50.464;30.612;2023-09-30T03:37:38;24.50;;;18.60;;
58978;SDS011;44763;50.464;30.612;2023-09-30T03:39:40;24.30;;;19.50;;
58978;SDS011;44763;50.464;30.612;2023-09-30T03:41:42;22.40;;;19.50;;
58978;SDS011;44763;50.464;30.612;2023-09-30T03:43:45;22.60;;;20.00;;
58978;SDS011;44763;50.464;30.612;2023-09-30T03:45:47;24.20;;;21.00;;
58978;SDS011;44763;50.464;30.612;2023-09-30T03:47:49;28.10;;;21.10;;
58978;SDS011;44763;50.464;30.612;2023-09-30T03:49:51;21.50;;;19.20;;
58978;SDS011;44763;50.464;30.612;2023-09-30T03:51:55;28.20;;;21.80;;
58978;SDS011;44763;50.464;30.612;2023-09-30T03:53:57;24.70;;;19.90;;
58978;SDS011;44763;50.464;30.612;2023-09-30T03:55:59;26.60;;;20.60;;
58978;SDS011;44763;50.464;30.612;2023-09-30T03:58:01;25.00;;;21.00;;
58978;SDS011;44763;50.464;30.612;2023-09-30T04:00:05;24.90;;;20.20;;
58978;SDS011;44763;50.464;30.612;2023-09-30T04:02:14;21.20;;;18.70;;
58978;SDS011;44763;50.464;30.612;2023-09-30T04:04:16;21.10;;;18.20;;
58978;SDS011;44763;50.464;30.612;2023-09-30T04:06:18;22.40;;;20.00;;
58978;SDS011;44763;50.464;30.612;2023-09-30T04:08:20;22.70;;;20.30;;
58978;SDS011;44763;50.464;30.612;2023-09-30T04:10:23;26.20;;;19.30;;
58978;SDS011;44763;50.464;30.612;2023-09-30T04:12:26;21.30;;;19.00;;
58978;SDS011;44763;50.464;30.612;2023-09-30T04:16:44;24.80;;;19.80;;
58978;SDS011;44763;50.464;30.612;2023-09-30T04:18:46;23.50;;;21.00;;
58978;SDS011;44763;50.464;30.612;2023-09-30T04:20:50;26.70;;;21.90;;
58978;SDS011;44763;50.464;30.612;2023-09-30T04:22:53;27.40;;;20.90;;
58978;SDS011;44763;50.464;30.612;2023-09-30T04:24:59;22.00;;;19.60;;
58978;SDS011;44763;50.464;30.612;2023-09-30T04:27:01;24.20;;;20.30;;
58978;SDS011;44763;50.464;30.612;2023-09-30T04:31:08;24.90;;;19.90;;
58978;SDS011;44763;50.464;30.612;2023-09-30T04:33:11;20.70;;;18.40;;
58978;SDS011;44763;50.464;30.612;2023-09-30T04:35:15;30.60;;;21.00;;
58978;SDS011;44763;50.464;30.612;2023-09-30T04:37:16;21.40;;;18.50;;
58978;SDS011;44763;50.464;30.612;2023-09-30T04:39:19;26.70;;;20.30;;
58978;SDS011;44763;50.464;30.612;2023-09-30T04:41:21;22.40;;;19.90;;
58978;SDS011;44763;50.464;30.612;2023-09-30T04:43:22;24.90;;;20.60;;
58978;SDS011;44763;50.464;30.612;2023-09-30T04:45:25;24.20;;;19.60;;
58978;SDS011;44763;50.464;30.612;2023-09-30T04:47:27;25.10;;;20.70;;
58978;SDS011;44763;50.464;30.612;2023-09-30T04:49:30;31.10;;;20.10;;
58978;SDS011;44763;50.464;30.612;2023-09-30T04:51:32;22.40;;;19.70;;
58978;SDS011;44763;50.464;30.612;2023-09-30T04:53:35;23.60;;;20.40;;
58978;SDS011;44763;50.464;30.612;2023-09-30T04:55:37;24.10;;;20.40;;
58978;SDS011;44763;50.464;30.612;2023-09-30T04:57:39;24.60;;;19.00;;
58978;SDS011;44763;50.464;30.612;2023-09-30T04:59:41;22.30;;;19.80;;
58978;SDS011;44763;50.464;30.612;2023-09-30T05:01:44;22.80;;;20.00;;
58978;SDS011;44763;50.464;30.612;2023-09-30T05:03:46;24.20;;;21.60;;
58978;SDS011;44763;50.464;30.612;2023-09-30T05:05:51;28.50;;;22.50;;
58978;SDS011;44763;50.464;30.612;2023-09-30T05:07:57;27.40;;;22.00;;
58978;SDS011;44763;50.464;30.612;2023-09-30T05:09:59;28.20;;;21.80;;
58978;SDS011;44763;50.464;30.612;2023-09-30T05:12:04;24.70;;;22.10;;
58978;SDS011;44763;50.464;30.612;2023-09-30T05:14:06;25.50;;;21.10;;
58978;SDS011;44763;50.464;30.612;2023-09-30T05:16:08;23.30;;;20.90;;
58978;SDS011;44763;50.464;30.612;2023-09-30T05:18:11;23.30;;;20.10;;
58978;SDS011;44763;50.464;30.612;2023-09-30T05:20:13;24.40;;;21.80;;
58978;SDS011;44763;50.464;30.612;2023-09-30T05:22:18;28.20;;;21.70;;
58978;SDS011;44763;50.464;30.612;2023-09-30T05:24:25;27.30;;;20.40;;
58978;SDS011;44763;50.464;30.612;2023-09-30T05:26:27;23.60;;;20.30;;
58978;SDS011;44763;50.464;30.612;2023-09-30T05:28:28;22.30;;;19.90;;
58978;SDS011;44763;50.464;30.612;2023-09-30T05:30:30;27.40;;;20.40;;
58978;SDS011;44763;50.464;30.612;2023-09-30T05:32:33;27.60;;;20.40;;
58978;SDS011;44763;50.464;30.612;2023-09-30T05:34:36;25.80;;;23.00;;
58978;SDS011;44763;50.464;30.612;2023-09-30T05:36:40;31.00;;;22.70;;
58978;SDS011;44763;50.464;30.612;2023-09-30T05:38:43;29.60;;;22.90;;
58978;SDS011;44763;50.464;30.612;2023-09-30T05:40:44;37.00;;;23.70;;
58978;SDS011;44763;50.464;30.612;2023-09-30T05:42:46;31.80;;;23.80;;
58978;SDS011;44763;50.464;30.612;2023-09-30T05:44:48;29.00;;;22.50;;
58978;SDS011;44763;50.464;30.612;2023-09-30T05:46:50;32.30;;;22.80;;
58978;SDS011;44763;50.464;30.612;2023-09-30T05:48:52;29.50;;;22.70;;
58978;SDS011;44763;50.464;30.612;2023-09-30T05:50:57;28.70;;;22.90;;
58978;SDS011;44763;50.464;30.612;2023-09-30T05:52:59;24.20;;;21.60;;
58978;SDS011;44763;50.464;30.612;2023-09-30T05:55:01;32.90;;;23.00;;
58978;SDS011;44763;50.464;30.612;2023-09-30T05:57:04;26.90;;;22.50;;
58978;SDS011;44763;50.464;30.612;2023-09-30T05:59:07;28.80;;;23.00;;
58978;SDS011;44763;50.464;30.612;2023-09-30T06:01:09;31.40;;;23.80;;
58978;SDS011;44763;50.464;30.612;2023-09-30T06:03:14;33.60;;;22.50;;
58978;SDS011;44763;50.464;30.612;2023-09-30T06:05:16;31.20;;;23.00;;
58978;SDS011;44763;50.464;30.612;2023-09-30T06:07:17;30.20;;;22.60;;
58978;SDS011;44763;50.464;30.612;2023-09-30T06:09:21;29.20;;;22.80;;
58978;SDS011;44763;50.464;30.612;2023-09-30T06:11:26;29.90;;;22.30;;
58978;SDS011;44763;50.464;30.612;2023-09-30T06:13:32;28.70;;;23.30;;
58978;SDS011;44763;50.464;30.612;2023-09-30T06:15:38;26.60;;;21.90;;
58978;SDS011;44763;50.464;30.612;2023-09-30T06:17:42;29.10;;;20.10;;
58978;SDS011;44763;50.464;30.612;2023-09-30T06:19:44;24.50;;;20.70;;
58978;SDS011;44763;50.464;30.612;2023-09-30T06:21:46;26.50;;;19.90;;
58978;SDS011;44763;50.464;30.612;2023-09-30T06:23:48;25.00;;;18.60;;
58978;SDS011;44763;50.464;30.612;2023-09-30T06:25:53;24.70;;;17.60;;
58978;SDS011;44763;50.464;30.612;2023-09-30T06:27:55;22.10;;;17.20;;
58978;SDS011;44763;50.464;30.612;2023-09-30T06:29:57;22.10;;;17.60;;
58978;SDS011;44763;50.464;30.612;2023-09-30T06:31:59;17.90;;;15.50;;
58978;SDS011;44763;50.464;30.612;2023-09-30T06:34:01;22.10;;;16.60;;
58978;SDS011;44763;50.464;30.612;2023-09-30T06:36:03;17.00;;;15.10;;
58978;SDS011;44763;50.464;30.612;2023-09-30T06:38:10;17.90;;;14.80;;
58978;SDS011;44763;50.464;30.612;2023-09-30T06:40:12;17.70;;;15.80;;
58978;SDS011;44763;50.464;30.612;2023-09-30T06:42:14;21.10;;;17.30;;
58978;SDS011;44763;50.464;30.612;2023-09-30T06:44:17;19.00;;;16.10;;
58978;SDS011;44763;50.464;30.612;2023-09-30T06:46:18;18.50;;;16.50;;
58978;SDS011;44763;50.464;30.612;2023-09-30T06:48:20;18.40;;;16.30;;
58978;SDS011;44763;50.464;30.612;2023-09-30T06:50:22;18.20;;;16.20;;
58978;SDS011;44763;50.464;30.612;2023-09-30T06:52:25;18.40;;;16.10;;
58978;SDS011;44763;50.464;30.612;2023-09-30T06:54:30;20.40;;;14.90;;
58978;SDS011;44763;50.464;30.612;2023-09-30T06:56:33;25.70;;;15.50;;
58978;SDS011;44763;50.464;30.612;2023-09-30T06:58:34;24.40;;;16.00;;
58978;SDS011;44763;50.464;30.612;2023-09-30T07:00:37;20.00;;;16.00;;
58978;SDS011;44763;50.464;30.612;2023-09-30T07:02:40;18.40;;;14.20;;
58978;SDS011;44763;50.464;30.612;2023-09-30T07:04:43;17.30;;;14.00;;
58978;SDS011;44763;50.464;30.612;2023-09-30T07:06:45;18.80;;;14.20;;
58978;SDS011;44763;50.464;30.612;2023-09-30T07:08:47;20.60;;;13.10;;
58978;SDS011;44763;50.464;30.612;2023-09-30T07:10:49;21.20;;;13.60;;
58978;SDS011;44763;50.464;30.612;2023-09-30T07:12:51;18.80;;;13.20;;
58978;SDS011;44763;50.464;30.612;2023-09-30T07:14:53;20.40;;;13.10;;
58978;SDS011;44763;50.464;30.612;2023-09-30T07:16:54;16.90;;;12.80;;
58978;SDS011;44763;50.464;30.612;2023-09-30T07:18:56;15.20;;;12.30;;
58978;SDS011;44763;50.464;30.612;2023-09-30T07:21:00;13.80;;;12.40;;
58978;SDS011;44763;50.464;30.612;2023-09-30T07:23:03;22.00;;;12.50;;
58978;SDS011;44763;50.464;30.612;2023-09-30T07:25:19;14.60;;;12.00;;
58978;SDS011;44763;50.464;30.612;2023-09-30T07:27:21;16.70;;;11.90;;
58978;SDS011;44763;50.464;30.612;2023-09-30T07:29:28;17.90;;;11.80;;
58978;SDS011;44763;50.464;30.612;2023-09-30T07:31:34;13.30;;;11.80;;
58978;SDS011;44763;50.464;30.612;2023-09-30T07:33:37;12.10;;;10.20;;
58978;SDS011;44763;50.464;30.612;2023-09-30T07:35:39;17.50;;;11.40;;
58978;SDS011;44763;50.464;30.612;2023-09-30T07:37:41;14.80;;;10.00;;
58978;SDS011;44763;50.464;30.612;2023-09-30T07:39:44;17.80;;;12.70;;
58978;SDS011;44763;50.464;30.612;2023-09-30T07:41:46;14.70;;;10.50;;
58978;SDS011;44763;50.464;30.612;2023-09-30T07:43:48;14.00;;;10.60;;
58978;SDS011;44763;50.464;30.612;2023-09-30T07:45:49;11.00;;;9.10;;
58978;SDS011;44763;50.464;30.612;2023-09-30T07:47:51;14.30;;;10.90;;
58978;SDS011;44763;50.464;30.612;2023-09-30T07:49:54;12.70;;;9.10;;
58978;SDS011;44763;50.464;30.612;2023-09-30T07:51:56;15.30;;;10.00;;
58978;SDS011;44763;50.464;30.612;2023-09-30T07:53:57;12.30;;;9.20;;
58978;SDS011;44763;50.464;30.612;2023-09-30T07:56:19;12.50;;;9.00;;
58978;SDS011;44763;50.464;30.612;2023-09-30T07:58:21;9.60;;;8.10;;
58978;SDS011;44763;50.464;30.612;2023-09-30T08:00:22;16.90;;;9.70;;
58978;SDS011;44763;50.464;30.612;2023-09-30T08:02:25;9.50;;;8.10;;
58978;SDS011;44763;50.464;30.612;2023-09-30T08:04:34;11.50;;;8.20;;
58978;SDS011;44763;50.464;30.612;2023-09-30T08:06:36;17.10;;;8.80;;
58978;SDS011;44763;50.464;30.612;2023-09-30T08:08:38;13.90;;;8.50;;
58978;SDS011;44763;50.464;30.612;2023-09-30T08:10:39;15.70;;;8.90;;
58978;SDS011;44763;50.464;30.612;2023-09-30T08:12:43;16.60;;;8.30;;
58978;SDS011;44763;50.464;30.612;2023-09-30T08:14:49;13.40;;;8.10;;
58978;SDS011;44763;50.464;30.612;2023-09-30T08:16:53;18.30;;;7.70;;
58978;SDS011;44763;50.464;30.612;2023-09-30T08:18:55;13.60;;;9.60;;
58978;SDS011;44763;50.464;30.612;2023-09-30T08:20:57;11.90;;;7.70;;
58978;SDS011;44763;50.464;30.612;2023-09-30T08:22:59;16.90;;;8.20;;
58978;SDS011;44763;50.464;30.612;2023-09-30T08:25:01;13.30;;;8.20;;
58978;SDS011;44763;50.464;30.612;2023-09-30T08:27:03;9.60;;;7.50;;
58978;SDS011;44763;50.464;30.612;2023-09-30T08:29:04;13.20;;;7.50;;
58978;SDS011;44763;50.464;30.612;2023-09-30T08:31:07;11.00;;;7.10;;
58978;SDS011;44763;50.464;30.612;2023-09-30T08:33:10;8.10;;;7.20;;
58978;SDS011;44763;50.464;30.612;2023-09-30T08:35:12;16.40;;;7.60;;
58978;SDS011;44763;50.464;30.612;2023-09-30T08:37:16;8.90;;;7.30;;
58978;SDS011;44763;50.464;30.612;2023-09-30T08:39:18;8.60;;;7.20;;
58978;SDS011;44763;50.464;30.612;2023-09-30T08:41:24;12.20;;;7.80;;
58978;SDS011;44763;50.464;30.612;2023-09-30T08:43:31;9.90;;;7.30;;
58978;SDS011;44763;50.464;30.612;2023-09-30T08:45:41;7.30;;;5.70;;
58978;SDS011;44763;50.464;30.612;2023-09-30T08:47:46;9.90;;;5.70;;
58978;SDS011;44763;50.464;30.612;2023-09-30T08:49:48;7.20;;;4.80;;
58978;SDS011;44763;50.464;30.612;2023-09-30T08:51:56;8.50;;;5.80;;
58978;SDS011;44763;50.464;30.612;2023-09-30T08:54:00;8.80;;;5.50;;
58978;SDS011;44763;50.464;30.612;2023-09-30T08:56:05;12.20;;;5.10;;
58978;SDS011;44763;50.464;30.612;2023-09-30T08:58:12;8.60;;;5.20;;
58978;SDS011;44763;50.464;30.612;2023-09-30T09:00:14;6.60;;;5.40;;
58978;SDS011;44763;50.464;30.612;2023-09-30T09:02:17;6.80;;;5.60;;
58978;SDS011;44763;50.464;30.612;2023-09-30T09:04:20;7.60;;;6.10;;
58978;SDS011;44763;50.464;30.612;2023-09-30T09:06:23;8.50;;;5.50;;
58978;SDS011;44763;50.464;30.612;2023-09-30T09:08:26;10.30;;;5.20;;
58978;SDS011;44763;50.464;30.612;2023-09-30T09:10:28;12.50;;;5.60;;
58978;SDS011;44763;50.464;30.612;2023-09-30T09:12:30;7.60;;;4.80;;
58978;SDS011;44763;50.464;30.612;2023-09-30T09:14:39;6.40;;;4.80;;
58978;SDS011;44763;50.464;30.612;2023-09-30T09:16:52;11.90;;;4.70;;
58978;SDS011;44763;50.464;30.612;2023-09-30T09:18:55;8.70;;;4.80;;
58978;SDS011;44763;50.464;30.612;2023-09-30T09:21:08;4.80;;;4.40;;
58978;SDS011;44763;50.464;30.612;2023-09-30T09:23:11;4.10;;;3.50;;
58978;SDS011;44763;50.464;30.612;2023-09-30T09:25:16;5.00;;;3.60;;
58978;SDS011;44763;50.464;30.612;2023-09-30T09:27:18;6.10;;;4.40;;
58978;SDS011;44763;50.464;30.612;2023-09-30T09:29:24;4.60;;;4.20;;
58978;SDS011;44763;50.464;30.612;2023-09-30T09:31:29;9.30;;;4.70;;
58978;SDS011;44763;50.464;30.612;2023-09-30T09:33:34;8.00;;;4.30;;
58978;SDS011;44763;50.464;30.612;2023-09-30T09:35:38;7.00;;;4.50;;
58978;SDS011;44763;50.464;30.612;2023-09-30T09:37:40;7.90;;;4.10;;
58978;SDS011;44763;50.464;30.612;2023-09-30T09:39:52;4.60;;;4.20;;
58978;SDS011;44763;50.464;30.612;2023-09-30T09:41:55;9.90;;;5.10;;
58978;SDS011;44763;50.464;30.612;2023-09-30T09:43:59;5.30;;;4.80;;
58978;SDS011;44763;50.464;30.612;2023-09-30T09:46:01;5.20;;;4.60;;
58978;SDS011;44763;50.464;30.612;2023-09-30T09:48:05;5.60;;;4.70;;
58978;SDS011;44763;50.464;30.612;2023-09-30T09:50:09;5.10;;;4.80;;
58978;SDS011;44763;50.464;30.612;2023-09-30T09:52:11;5.50;;;5.10;;
58978;SDS011;44763;50.464;30.612;2023-09-30T09:54:17;5.30;;;4.90;;
58978;SDS011;44763;50.464;30.612;2023-09-30T09:56:19;6.30;;;5.20;;
58978;SDS011;44763;50.464;30.612;2023-09-30T09:58:21;6.50;;;5.00;;
58978;SDS011;44763;50.464;30.612;2023-09-30T10:00:26;6.60;;;5.00;;
58978;SDS011;44763;50.464;30.612;2023-09-30T10:02:29;7.80;;;5.30;;
58978;SDS011;44763;50.464;30.612;2023-09-30T10:04:33;6.00;;;4.60;;
58978;SDS011;44763;50.464;30.612;2023-09-30T10:06:35;5.20;;;4.50;;
58978;SDS011;44763;50.464;30.612;2023-09-30T10:08:42;9.60;;;5.20;;
58978;SDS011;44763;50.464;30.612;2023-09-30T10:10:46;5.90;;;4.90;;
58978;SDS011;44763;50.464;30.612;2023-09-30T10:12:49;7.60;;;5.20;;
58978;SDS011;44763;50.464;30.612;2023-09-30T10:14:51;6.00;;;4.50;;
58978;SDS011;44763;50.464;30.612;2023-09-30T10:16:54;5.50;;;4.40;;
58978;SDS011;44763;50.464;30.612;2023-09-30T10:19:18;10.10;;;4.50;;
58978;SDS011;44763;50.464;30.612;2023-09-30T10:21:24;9.80;;;5.10;;
58978;SDS011;44763;50.464;30.612;2023-09-30T10:23:26;6.70;;;4.80;;
58978;SDS011;44763;50.464;30.612;2023-09-30T10:25:35;7.00;;;4.90;;
58978;SDS011;44763;50.464;30.612;2023-09-30T10:27:38;7.70;;;4.80;;
58978;SDS011;44763;50.464;30.612;2023-09-30T10:29:41;7.50;;;4.60;;
58978;SDS011;44763;50.464;30.612;2023-09-30T10:31:49;6.00;;;5.40;;
58978;SDS011;44763;50.464;30.612;2023-09-30T10:36:02;6.50;;;5.00;;
58978;SDS011;44763;50.464;30.612;2023-09-30T10:40:26;4.80;;;4.40;;
58978;SDS011;44763;50.464;30.612;2023-09-30T10:44:47;5.50;;;3.50;;
58978;SDS011;44763;50.464;30.612;2023-09-30T10:46:49;4.30;;;3.90;;
58978;SDS011;44763;50.464;30.612;2023-09-30T10:48:52;6.50;;;4.10;;
58978;SDS011;44763;50.464;30.612;2023-09-30T10:50:56;7.70;;;4.20;;
58978;SDS011;44763;50.464;30.612;2023-09-30T10:53:03;5.70;;;4.70;;
58978;SDS011;44763;50.464;30.612;2023-09-30T10:55:07;4.10;;;3.40;;
58978;SDS011;44763;50.464;30.612;2023-09-30T10:57:10;5.40;;;3.90;;
58978;SDS011;44763;50.464;30.612;2023-09-30T10:59:17;5.00;;;3.80;;
58978;SDS011;44763;50.464;30.612;2023-09-30T11:01:20;9.70;;;4.10;;
58978;SDS011;44763;50.464;30.612;2023-09-30T11:05:27;5.00;;;3.90;;
58978;SDS011;44763;50.464;30.612;2023-09-30T11:07:50;8.50;;;3.90;;
58978;SDS011;44763;50.464;30.612;2023-09-30T11:09:54;3.20;;;3.00;;
58978;SDS011;44763;50.464;30.612;2023-09-30T11:11:57;3.90;;;3.60;;
58978;SDS011;44763;50.464;30.612;2023-09-30T11:13:59;4.40;;;4.00;;
58978;SDS011;44763;50.464;30.612;2023-09-30T11:16:04;5.20;;;3.90;;
58978;SDS011;44763;50.464;30.612;2023-09-30T11:18:16;11.90;;;3.00;;
58978;SDS011;44763;50.464;30.612;2023-09-30T11:20:19;7.90;;;3.70;;
58978;SDS011;44763;50.464;30.612;2023-09-30T11:22:22;7.20;;;4.00;;
58978;SDS011;44763;50.464;30.612;2023-09-30T11:24:24;8.20;;;4.00;;
58978;SDS011;44763;50.464;30.612;2023-09-30T11:26:30;3.90;;;3.50;;
58978;SDS011;44763;50.464;30.612;2023-09-30T11:28:41;5.70;;;3.90;;
58978;SDS011;44763;50.464;30.612;2023-09-30T11:30:59;4.10;;;3.20;;
58978;SDS011;44763;50.464;30.612;2023-09-30T11:33:08;5.60;;;4.50;;
58978;SDS011;44763;50.464;30.612;2023-09-30T11:35:21;4.90;;;4.00;;
58978;SDS011;44763;50.464;30.612;2023-09-30T11:37:32;7.50;;;3.90;;
58978;SDS011;44763;50.464;30.612;2023-09-30T11:39:35;7.20;;;4.10;;
58978;SDS011;44763;50.464;30.612;2023-09-30T11:41:38;4.50;;;3.40;;
58978;SDS011;44763;50.464;30.612;2023-09-30T11:44:26;3.60;;;3.30;;
58978;SDS011;44763;50.464;30.612;2023-09-30T11:46:16;4.20;;;3.80;;
58978;SDS011;44763;50.464;30.612;2023-09-30T11:48:18;4.80;;;3.40;;
58978;SDS011;44763;50.464;30.612;2023-09-30T11:50:21;3.90;;;3.60;;
58978;SDS011;44763;50.464;30.612;2023-09-30T11:52:26;4.60;;;4.20;;
58978;SDS011;44763;50.464;30.612;2023-09-30T11:54:32;8.00;;;4.00;;
58978;SDS011;44763;50.464;30.612;2023-09-30T11:56:35;11.80;;;4.30;;
58978;SDS011;44763;50.464;30.612;2023-09-30T11:58:37;3.90;;;3.60;;
58978;SDS011;44763;50.464;30.612;2023-09-30T12:00:41;10.50;;;5.00;;
58978;SDS011;44763;50.464;30.612;2023-09-30T12:02:43;5.20;;;3.70;;
58978;SDS011;44763;50.464;30.612;2023-09-30T12:04:45;4.70;;;4.10;;
58978;SDS011;44763;50.464;30.612;2023-09-30T12:06:51;9.90;;;4.30;;
58978;SDS011;44763;50.464;30.612;2023-09-30T12:08:53;4.90;;;3.40;;
58978;SDS011;44763;50.464;30.612;2023-09-30T12:10:55;5.10;;;3.80;;